Time;durP1;ratioP1;P1;durP2;ratioP2;P2;SDS_P1;SDS_P2;PMS_P1;PMS_P2;Temp;Humidity;BMP_temperature;BMP_pressure;BME280_temperature;BME280_humidity;BME280_pressure;Samples;Min_cycle;Max_cycle;Signal;HPM_P1;HPM_P2
2023/06/23 00:04:22;;;;;;;4.93;4.30;;;22.90;99.90;;;;;;2621073;46;20857;31
2023/06/23 00:06:59;;;;;;;4.13;3.58;;;22.90;99.90;;;;;;2602763;54;20022;31
2023/06/23 00:09:37;;;;;;;6.68;3.95;;;22.90;99.90;;;;;;2602991;54;20727;31
2023/06/23 00:12:12;;;;;;;3.80;3.22;;;22.90;99.90;;;;;;2603097;54;20043;31
2023/06/23 00:14:47;;;;;;;5.35;3.42;;;22.80;99.90;;;;;;2602993;54;20038;31
2023/06/23 00:17:24;;;;;;;4.97;3.38;;;22.90;99.90;;;;;;2602827;54;20032;31
2023/06/23 00:20:03;;;;;;;;;;;22.90;99.90;;;;;;2603019;54;20026;31
2023/06/23 00:22:40;;;;;;;4.30;3.90;;;22.80;99.90;;;;;;2602799;54;19934;31
2023/06/23 00:25:15;;;;;;;3.70;3.08;;;22.80;99.90;;;;;;2602878;54;20727;31
2023/06/23 00:27:51;;;;;;;4.65;3.75;;;22.80;99.90;;;;;;2602729;54;20034;31
2023/06/23 00:30:27;;;;;;;6.68;3.80;;;22.80;99.90;;;;;;2602813;54;20164;31
2023/06/23 00:33:01;;;;;;;;;;;22.80;99.90;;;;;;2602860;54;20859;31
2023/06/23 00:35:42;;;;;;;4.55;3.95;;;22.80;99.90;;;;;;2621182;46;20568;31
2023/06/23 00:38:22;;;;;;;5.07;3.85;;;22.80;99.90;;;;;;2602940;54;20898;31
2023/06/23 00:40:59;;;;;;;5.50;4.40;;;22.80;99.90;;;;;;2602923;54;20725;31
2023/06/23 00:43:36;;;;;;;4.30;3.90;;;22.80;99.90;;;;;;2602794;54;20022;31
2023/06/23 00:46:15;;;;;;;4.90;3.95;;;22.70;99.90;;;;;;2602822;54;20243;31
2023/06/23 00:48:52;;;;;;;6.55;3.88;;;22.70;99.90;;;;;;2602955;54;20890;31
2023/06/23 00:51:30;;;;;;;4.75;4.05;;;22.70;99.90;;;;;;2619617;47;20026;31
2023/06/23 00:54:07;;;;;;;5.15;3.75;;;22.70;99.90;;;;;;2602712;54;20023;31
2023/06/23 00:56:42;;;;;;;5.95;4.03;;;22.60;99.90;;;;;;2603069;54;20854;31
2023/06/23 00:59:17;;;;;;;5.30;3.83;;;22.60;99.90;;;;;;2603398;54;20926;31
2023/06/23 01:01:52;;;;;;;6.87;4.53;;;22.60;99.90;;;;;;2603403;54;20846;31
2023/06/23 01:04:28;;;;;;;7.15;4.95;;;22.60;99.90;;;;;;2621938;46;20278;31
2023/06/23 01:07:15;;;;;;;7.80;4.80;;;22.50;99.90;;;;;;2621926;46;20591;31
2023/06/23 01:09:53;;;;;;;5.65;4.70;;;22.50;99.90;;;;;;2603421;54;20038;31
2023/06/23 01:12:33;;;;;;;6.17;5.00;;;22.50;99.90;;;;;;2621993;46;20033;31
2023/06/23 01:15:10;;;;;;;5.85;4.10;;;22.50;99.90;;;;;;2621949;46;20249;31
2023/06/23 01:17:49;;;;;;;5.20;4.20;;;22.50;99.90;;;;;;2603453;54;20589;31
2023/06/23 01:20:26;;;;;;;5.32;4.43;;;22.50;99.90;;;;;;2602739;54;21186;31
2023/06/23 01:23:26;;;;;;;6.80;4.85;;;22.40;99.90;;;;;;2622104;46;20026;31
2023/06/23 01:26:07;;;;;;;8.50;4.97;;;22.40;99.90;;;;;;2603008;54;20023;31
2023/06/23 01:28:49;;;;;;;6.38;4.47;;;22.40;99.90;;;;;;2603098;54;20048;31
2023/06/23 01:31:31;;;;;;;5.75;4.28;;;22.30;99.90;;;;;;2603560;54;20039;31
2023/06/23 01:34:07;;;;;;;4.88;3.90;;;22.30;99.90;;;;;;2603572;54;20900;31
2023/06/23 01:36:45;;;;;;;6.07;4.60;;;22.30;99.90;;;;;;2621743;46;20033;31
2023/06/23 01:39:21;;;;;;;5.60;4.35;;;22.30;99.90;;;;;;2603462;54;20058;31
2023/06/23 01:42:00;;;;;;;6.40;4.05;;;22.30;99.90;;;;;;2603406;54;20898;31
2023/06/23 01:44:38;;;;;;;4.47;3.63;;;22.30;99.90;;;;;;2603596;54;20883;31
2023/06/23 01:47:13;;;;;;;5.40;4.40;;;22.30;99.90;;;;;;2603212;54;20082;31
2023/06/23 01:49:48;;;;;;;7.45;5.18;;;22.30;99.90;;;;;;2603381;54;20258;31
2023/06/23 01:52:23;;;;;;;;;;;22.20;99.90;;;;;;2603616;54;20939;31
2023/06/23 01:54:58;;;;;;;6.32;4.53;;;22.20;99.90;;;;;;2619426;46;19968;31
2023/06/23 01:57:33;;;;;;;5.97;5.13;;;22.10;99.90;;;;;;2603263;54;20573;31
2023/06/23 02:00:13;;;;;;;6.65;4.30;;;22.10;99.90;;;;;;2603421;54;20041;31
2023/06/23 02:02:52;;;;;;;15.32;7.50;;;22.10;99.90;;;;;;2603384;54;20918;31
2023/06/23 06:05:28;;;;;;;11.18;8.32;;;20.70;99.90;;;;;;2602773;54;20030;31
2023/06/23 06:08:03;;;;;;;9.65;7.60;;;20.60;99.90;;;;;;2602903;54;20581;31
2023/06/23 06:10:39;;;;;;;;;;;20.70;99.90;;;;;;2622298;46;20027;31
2023/06/23 06:13:18;;;;;;;16.10;9.50;;;20.70;99.90;;;;;;2621936;46;20004;31
2023/06/23 06:15:54;;;;;;;13.45;9.30;;;20.80;99.90;;;;;;2603360;54;20874;31
2023/06/23 06:18:29;;;;;;;11.43;8.57;;;20.80;99.90;;;;;;2621859;46;20022;31
2023/06/23 06:21:08;;;;;;;12.23;7.57;;;20.90;99.90;;;;;;2603652;54;20760;31
2023/06/23 06:23:43;;;;;;;11.77;7.00;;;21.00;99.90;;;;;;2622302;46;20037;31
2023/06/23 06:26:18;;;;;;;13.32;8.82;;;21.20;99.90;;;;;;2603844;54;20085;31
2023/06/23 06:28:54;;;;;;;9.73;7.67;;;21.30;99.90;;;;;;2621850;46;20027;31
2023/06/23 06:31:33;;;;;;;9.85;6.75;;;21.40;99.90;;;;;;2773334;31;21491;31
2023/06/23 06:34:11;;;;;;;8.80;7.90;;;21.60;99.90;;;;;;2603813;54;20884;31
2023/06/23 06:36:52;;;;;;;;;;;21.70;99.90;;;;;;2603835;54;20898;31
2023/06/23 06:39:29;;;;;;;13.15;10.82;;;21.80;99.90;;;;;;2603679;54;19941;31
2023/06/23 06:42:04;;;;;;;15.45;11.35;;;21.90;99.90;;;;;;2603729;54;20030;31
2023/06/23 06:44:48;;;;;;;15.37;12.07;;;21.90;99.90;;;;;;2603546;54;20116;31
2023/06/23 06:47:27;;;;;;;22.05;14.65;;;22.00;99.90;;;;;;2602720;54;20030;31
2023/06/23 06:50:05;;;;;;;14.88;9.70;;;22.10;99.90;;;;;;2603483;54;20026;31
2023/06/23 06:52:39;;;;;;;12.48;9.40;;;22.30;99.90;;;;;;2622224;46;20890;31
2023/06/23 06:55:24;;;;;;;14.48;10.07;;;22.40;99.90;;;;;;2602644;54;20964;31
2023/06/23 06:57:59;;;;;;;12.77;11.00;;;22.50;99.90;;;;;;2603341;54;20037;31
2023/06/23 07:00:36;;;;;;;12.63;11.07;;;22.70;99.90;;;;;;2603602;54;20924;31
2023/06/23 07:03:14;;;;;;;15.23;13.43;;;22.80;99.90;;;;;;2603405;54;20109;31
2023/06/23 07:05:54;;;;;;;16.45;14.65;;;22.80;99.90;;;;;;2603401;54;20031;31
2023/06/23 07:08:29;;;;;;;22.02;17.08;;;22.80;99.90;;;;;;2603416;54;20494;31
2023/06/23 07:11:08;;;;;;;20.25;18.02;;;23.00;99.90;;;;;;2603363;54;20088;31
2023/06/23 07:13:46;;;;;;;15.65;13.15;;;23.10;99.90;;;;;;2603390;54;20026;31
2023/06/23 07:16:22;;;;;;;14.52;12.77;;;23.20;99.90;;;;;;2603561;54;20031;31
2023/06/23 07:19:00;;;;;;;16.00;11.40;;;23.30;99.90;;;;;;2602760;54;19956;31
2023/06/23 07:21:36;;;;;;;10.95;7.85;;;23.40;99.90;;;;;;2621883;46;20637;31
2023/06/23 07:24:11;;;;;;;;;;;23.50;99.90;;;;;;2622261;46;20118;31
2023/06/23 07:26:51;;;;;;;11.20;8.80;;;23.60;99.90;;;;;;2603643;54;19956;31
2023/06/23 07:29:27;;;;;;;15.88;8.80;;;23.70;99.90;;;;;;2621800;46;20038;31
2023/06/23 07:32:03;;;;;;;14.70;10.60;;;23.80;99.90;;;;;;2603423;54;20858;31
2023/06/23 07:34:41;;;;;;;13.77;9.27;;;23.70;99.90;;;;;;2603484;54;20883;31
2023/06/23 07:37:16;;;;;;;15.10;10.45;;;23.90;99.90;;;;;;2603482;54;20049;31
2023/06/23 07:39:54;;;;;;;15.00;11.15;;;23.90;99.90;;;;;;2603248;54;20038;31
2023/06/23 07:42:34;;;;;;;19.17;13.03;;;23.70;99.90;;;;;;2621493;46;20030;31
2023/06/23 07:45:12;;;;;;;17.27;13.00;;;23.90;99.90;;;;;;2621821;46;20030;31
2023/06/23 07:47:48;;;;;;;18.15;11.73;;;24.10;99.90;;;;;;2621827;46;20033;31
2023/06/23 07:50:26;;;;;;;14.82;13.07;;;24.30;99.90;;;;;;2603075;54;20026;31
2023/06/23 07:53:03;;;;;;;14.90;12.63;;;24.30;99.90;;;;;;2603154;54;21428;31
2023/06/23 07:55:40;;;;;;;12.63;10.90;;;24.30;99.90;;;;;;2621442;46;20030;31
2023/06/23 07:58:19;;;;;;;18.40;13.88;;;24.40;99.90;;;;;;2602336;54;20812;31
2023/06/23 08:00:55;;;;;;;14.48;12.73;;;24.40;99.90;;;;;;2620473;46;20950;31
2023/06/23 08:03:33;;;;;;;14.55;12.27;;;24.40;99.90;;;;;;2602167;54;20966;31
2023/06/23 08:06:17;;;;;;;18.75;12.75;;;24.50;99.90;;;;;;2602942;54;21219;31
2023/06/23 08:11:30;;;;;;;18.00;12.90;;;24.60;99.90;;;;;;2603229;54;20023;31
2023/06/23 08:14:11;;;;;;;12.82;11.45;;;24.60;99.90;;;;;;2603159;54;20051;31
2023/06/23 08:16:47;;;;;;;11.65;10.45;;;24.70;99.90;;;;;;2603399;54;20027;31
2023/06/23 08:19:24;;;;;;;14.02;11.48;;;25.00;99.90;;;;;;2621531;46;20064;31
2023/06/23 08:22:03;;;;;;;15.77;11.00;;;25.20;99.90;;;;;;2603120;54;20085;31
2023/06/23 08:24:37;;;;;;;18.52;12.02;;;25.30;99.90;;;;;;2603109;54;20030;31
2023/06/23 08:27:15;;;;;;;15.82;10.65;;;25.50;99.90;;;;;;2603177;54;20034;31
2023/06/23 08:29:49;;;;;;;11.30;9.82;;;25.70;99.90;;;;;;2603057;54;20033;31
2023/06/23 08:32:28;;;;;;;13.10;11.27;;;26.00;99.90;;;;;;2621735;46;20042;31
2023/06/23 08:35:05;;;;;;;14.50;10.40;;;26.40;99.90;;;;;;2621768;46;20033;31
2023/06/23 08:37:42;;;;;;;12.23;9.83;;;26.50;99.90;;;;;;2602891;54;20328;31
2023/06/23 08:40:18;;;;;;;11.23;8.82;;;26.60;99.90;;;;;;2603139;54;20121;31
2023/06/23 08:42:57;;;;;;;10.70;9.55;;;26.80;99.90;;;;;;2603300;54;20033;31
2023/06/23 08:45:37;;;;;;;10.05;8.32;;;27.10;99.90;;;;;;2603284;54;20900;31
2023/06/23 08:48:19;;;;;;;11.10;8.80;;;27.40;99.90;;;;;;2603103;54;20023;31
2023/06/23 08:50:54;;;;;;;10.70;8.45;;;27.50;99.90;;;;;;2621517;46;20034;31
2023/06/23 08:53:30;;;;;;;15.00;9.60;;;27.60;99.90;;;;;;2602380;54;20869;31
2023/06/23 08:56:09;;;;;;;13.90;8.50;;;27.90;99.90;;;;;;2602805;54;20884;31
2023/06/23 08:58:44;;;;;;;9.45;8.32;;;28.00;99.90;;;;;;2602504;54;20034;31
2023/06/23 09:01:22;;;;;;;10.18;8.45;;;28.00;99.90;;;;;;2603039;54;20030;31
2023/06/23 09:04:00;;;;;;;12.07;9.40;;;28.20;99.90;;;;;;2603150;54;20157;31
2023/06/23 09:06:53;;;;;;;9.20;7.63;;;28.30;99.90;;;;;;2603360;54;20794;31
2023/06/23 09:09:42;;;;;;;16.00;8.70;;;28.40;99.90;;;;;;2603061;54;20103;31
2023/06/23 09:30:48;;;;;;;10.48;7.30;;;29.20;99.90;;;;;;2603790;54;20029;31
2023/06/23 09:33:34;;;;;;;11.60;7.63;;;29.30;99.90;;;;;;2603803;54;20767;31
2023/06/23 09:39:19;;;;;;;11.80;7.22;;;29.50;99.90;;;;;;2603723;54;20310;31
2023/06/23 09:42:14;;;;;;;;;;;;;;;;;;;;;
2023/06/23 09:44:58;;;;;;;8.38;7.32;;;29.70;99.90;;;;;;2603894;54;20038;31
2023/06/23 09:47:41;;;;;;;12.07;7.13;;;29.50;99.90;;;;;;2622192;46;20022;31
2023/06/23 09:50:15;;;;;;;9.57;7.00;;;29.60;99.90;;;;;;2603766;54;20834;31
2023/06/23 09:52:50;;;;;;;10.35;6.88;;;29.50;99.90;;;;;;2622352;46;20033;31
2023/06/23 09:55:29;;;;;;;11.50;7.22;;;29.60;99.90;;;;;;2617980;46;20987;31
2023/06/23 09:58:08;;;;;;;12.10;6.45;;;29.60;99.90;;;;;;2602968;54;20101;31
2023/06/23 10:00:43;;;;;;;11.07;6.43;;;29.40;99.90;;;;;;2603131;54;20108;31
2023/06/23 10:03:20;;;;;;;13.13;6.73;;;29.30;99.90;;;;;;2603874;54;20163;31
2023/06/23 10:05:59;;;;;;;9.47;5.90;;;29.20;99.90;;;;;;2603668;54;20033;31
2023/06/23 10:08:39;;;;;;;8.68;6.18;;;29.20;99.90;;;;;;2603666;54;20027;31
2023/06/23 10:11:20;;;;;;;8.45;6.32;;;29.10;99.90;;;;;;2603583;54;20030;31
2023/06/23 10:13:56;;;;;;;7.07;6.03;;;29.00;99.90;;;;;;2602855;54;20026;31
2023/06/23 10:16:34;;;;;;;8.38;6.45;;;29.10;99.90;;;;;;2702059;39;20394;31
2023/06/23 10:19:10;;;;;;;8.90;6.25;;;29.00;99.90;;;;;;2603944;54;20041;31
2023/06/23 10:21:46;;;;;;;8.13;6.10;;;28.90;99.90;;;;;;2603776;54;20038;31
2023/06/23 10:24:25;;;;;;;9.70;5.75;;;28.80;99.90;;;;;;2622235;46;20023;31
2023/06/23 10:26:59;;;;;;;11.83;6.30;;;28.60;99.90;;;;;;2603852;54;20038;31
2023/06/23 10:29:37;;;;;;;12.30;6.25;;;28.50;99.90;;;;;;2603495;54;20030;31
2023/06/23 10:32:17;;;;;;;7.60;5.65;;;28.40;99.90;;;;;;2603823;54;20859;31
2023/06/23 10:34:53;;;;;;;7.07;6.38;;;28.50;99.90;;;;;;2602895;54;20863;31
2023/06/23 10:37:30;;;;;;;11.57;6.97;;;28.50;99.90;;;;;;2602829;54;20046;31
2023/06/23 10:40:24;;;;;;;8.40;6.28;;;28.60;99.90;;;;;;2603792;54;20077;31
2023/06/23 10:43:02;;;;;;;9.82;6.45;;;28.60;99.90;;;;;;2603593;54;20779;31
2023/06/23 10:45:41;;;;;;;8.40;6.50;;;28.70;99.90;;;;;;2622109;46;20026;31
2023/06/23 10:48:18;;;;;;;9.57;6.63;;;29.00;99.90;;;;;;2603660;54;20861;31
2023/06/23 10:50:54;;;;;;;8.30;6.18;;;29.10;99.90;;;;;;2603454;54;20577;31
2023/06/23 10:53:37;;;;;;;7.93;6.30;;;29.20;99.90;;;;;;2603497;54;20026;31
2023/06/23 10:56:13;;;;;;;8.73;6.47;;;29.10;99.90;;;;;;2603728;54;20037;31
2023/06/23 10:58:53;;;;;;;7.07;6.32;;;29.10;99.90;;;;;;2613471;46;20234;31
2023/06/23 11:01:33;;;;;;;8.00;6.60;;;29.30;99.90;;;;;;2702224;39;20414;31
2023/06/23 11:04:11;;;;;;;10.80;6.50;;;29.40;99.90;;;;;;2603354;54;20786;31
2023/06/23 11:06:47;;;;;;;7.40;6.40;;;29.50;99.90;;;;;;2603237;54;20033;31
2023/06/23 11:09:47;;;;;;;8.37;6.60;;;29.70;99.90;;;;;;2622049;46;20053;31
2023/06/23 11:12:44;;;;;;;8.13;6.13;;;29.80;99.90;;;;;;2603290;54;20876;31
2023/06/23 11:15:20;;;;;;;7.00;6.30;;;29.60;99.90;;;;;;2603220;54;20031;31
2023/06/23 11:18:05;;;;;;;8.17;7.00;;;29.40;99.90;;;;;;2622050;46;20028;31
2023/06/23 11:20:43;;;;;;;11.93;6.75;;;29.20;99.90;;;;;;2603589;54;20886;31
2023/06/23 11:23:21;;;;;;;8.18;7.15;;;29.00;99.90;;;;;;2603144;54;20033;31
2023/06/23 11:25:58;;;;;;;9.20;7.15;;;28.80;99.90;;;;;;2602760;54;20946;31
2023/06/23 11:28:37;;;;;;;6.78;6.15;;;28.70;99.90;;;;;;2603477;54;21012;31
2023/06/23 11:31:27;;;;;;;9.63;7.27;;;28.50;99.90;;;;;;2603492;54;20908;31
2023/06/23 11:34:05;;;;;;;8.73;7.43;;;28.30;99.90;;;;;;2603169;54;20107;31
2023/06/23 11:36:44;;;;;;;9.52;7.13;;;28.20;99.90;;;;;;2622056;46;20038;31
2023/06/23 11:39:22;;;;;;;8.48;7.43;;;28.10;99.90;;;;;;2603529;54;20076;31
2023/06/23 11:42:00;;;;;;;10.30;7.28;;;28.10;99.90;;;;;;2603504;54;20014;31
2023/06/23 11:44:41;;;;;;;10.40;7.72;;;28.10;99.90;;;;;;2622275;46;20030;31
2023/06/23 11:47:25;;;;;;;8.65;7.28;;;28.20;99.90;;;;;;2603529;54;20085;31
2023/06/23 11:50:11;;;;;;;7.85;7.05;;;28.30;99.90;;;;;;2622207;46;20169;31
2023/06/23 11:52:49;;;;;;;7.93;6.67;;;28.50;99.90;;;;;;2603375;54;20031;31
2023/06/23 11:55:26;;;;;;;10.10;7.25;;;28.60;99.90;;;;;;2602683;54;20108;31
2023/06/23 11:58:05;;;;;;;8.10;7.18;;;28.60;99.90;;;;;;2602624;54;20570;31
2023/06/23 12:00:44;;;;;;;9.90;7.15;;;28.50;99.90;;;;;;2603507;54;20867;31
2023/06/23 12:03:25;;;;;;;8.02;7.10;;;28.40;99.90;;;;;;2603222;54;20057;31
2023/06/23 12:06:05;;;;;;;7.77;7.07;;;28.30;99.90;;;;;;2603330;54;19942;31
2023/06/23 12:08:42;;;;;;;9.07;7.43;;;28.20;99.90;;;;;;2603504;54;20140;31
2023/06/23 12:11:20;;;;;;;8.18;7.07;;;28.20;99.90;;;;;;2603233;54;20027;31
2023/06/23 12:13:57;;;;;;;9.15;7.25;;;28.40;99.90;;;;;;2602695;54;20216;31
2023/06/23 12:16:39;;;;;;;9.13;6.50;;;28.60;99.90;;;;;;2602451;54;20767;31
2023/06/23 12:19:16;;;;;;;11.95;7.05;;;28.70;99.90;;;;;;2603312;54;20030;31
2023/06/23 12:21:56;;;;;;;10.18;7.60;;;28.80;99.90;;;;;;2621866;46;20042;31
2023/06/23 12:24:34;;;;;;;7.82;6.82;;;28.70;99.90;;;;;;2603443;54;20865;31
2023/06/23 12:27:12;;;;;;;8.05;7.20;;;28.60;99.90;;;;;;2603459;54;20842;31
2023/06/23 12:29:49;;;;;;;8.38;6.55;;;28.60;99.90;;;;;;2621583;46;20030;31
2023/06/23 12:32:33;;;;;;;10.77;6.70;;;28.60;99.90;;;;;;2773051;31;20521;31
2023/06/23 12:35:11;;;;;;;8.48;7.00;;;28.60;99.90;;;;;;2603287;54;20030;31
2023/06/23 12:37:54;;;;;;;7.75;6.95;;;28.70;99.90;;;;;;2603128;54;20144;31
2023/06/23 12:40:33;;;;;;;9.38;6.68;;;28.60;99.90;;;;;;2621749;46;20137;31
2023/06/23 12:43:14;;;;;;;6.68;6.05;;;28.60;99.90;;;;;;2602473;54;20034;31
2023/06/23 12:45:52;;;;;;;7.28;5.80;;;28.70;99.90;;;;;;2602618;54;20909;31
2023/06/23 12:48:30;;;;;;;8.57;6.85;;;28.70;99.90;;;;;;2603125;54;20046;31
2023/06/23 12:51:08;;;;;;;7.63;6.43;;;28.60;99.90;;;;;;2603176;54;20618;31
2023/06/23 12:56:26;;;;;;;9.00;6.80;;;28.60;99.90;;;;;;2621684;47;20031;31
2023/06/23 12:59:03;;;;;;;7.47;5.13;;;28.60;99.90;;;;;;2603252;54;20278;31
2023/06/23 13:01:41;;;;;;;7.57;4.95;;;28.50;99.90;;;;;;2603278;54;20887;31
2023/06/23 13:04:17;;;;;;;6.20;4.95;;;28.50;99.90;;;;;;2603068;54;20214;31
2023/06/23 13:06:57;;;;;;;8.18;5.60;;;28.50;99.90;;;;;;2701828;39;21235;31
2023/06/23 13:12:16;;;;;;;7.97;5.38;;;28.50;99.90;;;;;;2602722;54;20039;31
2023/06/23 13:14:52;;;;;;;7.72;5.72;;;28.40;99.90;;;;;;2603301;54;20042;31
2023/06/23 13:17:29;;;;;;;6.57;5.83;;;28.40;99.90;;;;;;2621559;47;20565;31
2023/06/23 13:20:06;;;;;;;5.72;5.13;;;28.30;99.90;;;;;;2621265;47;20023;31
2023/06/23 13:22:43;;;;;;;6.32;5.72;;;28.20;99.90;;;;;;2603240;54;20807;31
2023/06/23 13:25:19;;;;;;;7.67;5.23;;;28.10;99.90;;;;;;2621292;47;20026;31
2023/06/23 13:27:59;;;;;;;6.93;5.90;;;28.00;99.90;;;;;;2621502;47;20137;31
2023/06/23 13:30:33;;;;;;;8.50;4.63;;;28.00;99.90;;;;;;2609019;47;22373;31
2023/06/23 13:33:10;;;;;;;7.40;5.70;;;28.00;99.90;;;;;;2602994;54;20034;31
2023/06/23 13:35:47;;;;;;;5.15;4.60;;;27.90;99.90;;;;;;2621557;47;20246;31
2023/06/23 13:38:23;;;;;;;6.20;4.57;;;27.90;99.90;;;;;;2603035;54;20029;31
2023/06/23 13:41:01;;;;;;;4.22;3.83;;;28.00;99.90;;;;;;2603141;54;20105;31
2023/06/23 13:43:40;;;;;;;8.13;4.28;;;28.00;99.90;;;;;;2602368;54;20759;31
2023/06/23 13:46:18;;;;;;;5.40;3.90;;;27.90;99.90;;;;;;2621171;47;20037;31
2023/06/23 13:48:54;;;;;;;4.90;4.18;;;28.00;99.90;;;;;;2603112;54;20026;31
2023/06/23 13:51:31;;;;;;;5.97;4.40;;;28.10;99.90;;;;;;2602537;54;20038;31
2023/06/23 13:54:07;;;;;;;7.68;4.60;;;28.10;99.90;;;;;;2621617;47;20034;31
2023/06/23 13:56:42;;;;;;;5.95;4.25;;;28.10;99.90;;;;;;2603049;54;20030;31
2023/06/23 14:01:55;;;;;;;6.97;4.35;;;27.90;99.90;;;;;;2621172;47;20022;31
2023/06/23 14:04:32;;;;;;;5.07;4.15;;;27.90;99.90;;;;;;2603537;54;20909;31
2023/06/23 14:07:12;;;;;;;7.70;4.73;;;27.80;99.90;;;;;;2622148;46;20032;31
2023/06/23 14:09:50;;;;;;;11.68;6.45;;;27.80;99.90;;;;;;2603028;54;20030;31
2023/06/23 14:12:32;;;;;;;8.65;6.07;;;27.60;99.90;;;;;;2603404;54;20867;31
2023/06/23 14:15:07;;;;;;;9.55;5.40;;;27.50;99.90;;;;;;2603982;54;20896;31
2023/06/23 14:17:46;;;;;;;5.68;4.43;;;27.50;99.90;;;;;;2622318;46;20057;31
2023/06/23 14:20:23;;;;;;;7.87;5.40;;;27.60;99.90;;;;;;2621906;46;20085;31
2023/06/23 14:23:02;;;;;;;6.35;4.65;;;27.60;99.90;;;;;;2603648;54;20243;31
2023/06/23 14:25:42;;;;;;;6.80;4.20;;;27.60;99.90;;;;;;2602885;54;20129;31
2023/06/23 14:28:18;;;;;;;6.13;4.55;;;27.70;99.90;;;;;;2602855;54;20103;31
2023/06/23 14:30:56;;;;;;;8.88;5.97;;;27.70;99.90;;;;;;2619986;46;20030;31
2023/06/23 14:33:39;;;;;;;9.82;5.80;;;27.70;99.90;;;;;;2603579;54;20030;31
2023/06/23 14:36:19;;;;;;;7.20;6.23;;;27.50;99.90;;;;;;2621927;46;20541;31
2023/06/23 14:38:56;;;;;;;9.93;7.03;;;27.40;99.90;;;;;;2603757;54;20254;31
2023/06/23 14:41:33;;;;;;;8.48;6.43;;;27.30;99.90;;;;;;2603286;54;20072;31
2023/06/23 14:44:13;;;;;;;9.03;6.77;;;27.10;99.90;;;;;;2622045;46;20101;31
2023/06/23 14:46:49;;;;;;;6.75;5.90;;;27.00;99.90;;;;;;2603540;54;20057;31
2023/06/23 14:49:30;;;;;;;13.07;7.68;;;26.90;99.90;;;;;;2622018;46;20031;31
2023/06/23 14:52:08;;;;;;;8.55;5.80;;;26.80;99.90;;;;;;2622320;46;20120;31
2023/06/23 14:54:48;;;;;;;9.80;5.03;;;26.50;99.90;;;;;;2603446;54;20048;31
2023/06/23 14:59:58;;;;;;;16.98;5.13;;;25.60;99.90;;;;;;2622042;46;20026;31
2023/06/23 15:02:36;;;;;;;14.63;4.55;;;25.10;99.90;;;;;;2622164;46;20031;31
2023/06/23 15:05:16;;;;;;;25.02;5.55;;;24.70;99.90;;;;;;2603385;54;20778;31
2023/06/23 15:07:54;;;;;;;11.02;4.95;;;24.40;99.90;;;;;;2605808;46;20841;31
2023/06/23 15:10:30;;;;;;;10.50;4.47;;;24.10;99.90;;;;;;2603359;54;20034;31
2023/06/23 15:13:06;;;;;;;11.83;4.83;;;24.00;99.90;;;;;;2603419;54;20031;31
2023/06/23 15:15:42;;;;;;;9.77;3.80;;;23.80;99.90;;;;;;2603151;54;20770;31
2023/06/23 15:18:18;;;;;;;4.32;3.10;;;23.70;99.90;;;;;;2603381;54;20031;31
2023/06/23 15:20:59;;;;;;;7.05;3.25;;;23.60;99.90;;;;;;2603225;54;20108;31
2023/06/23 15:26:20;;;;;;;5.03;2.80;;;23.50;99.90;;;;;;2603361;54;20121;31
2023/06/23 15:29:03;;;;;;;5.93;3.75;;;23.50;99.90;;;;;;2603301;54;20834;31
2023/06/23 15:31:42;;;;;;;4.53;2.83;;;23.40;99.90;;;;;;2603226;54;20085;31
2023/06/23 15:34:18;;;;;;;5.05;3.28;;;23.50;99.90;;;;;;2602636;54;20050;31
2023/06/23 15:36:59;;;;;;;4.95;3.50;;;23.50;99.90;;;;;;2603400;54;20471;31
2023/06/23 15:39:36;;;;;;;3.53;3.10;;;23.40;99.90;;;;;;2603413;54;20036;31
2023/06/23 15:42:13;;;;;;;3.90;3.50;;;23.50;99.90;;;;;;2603545;54;20026;31
2023/06/23 15:44:53;;;;;;;4.07;2.80;;;23.50;99.90;;;;;;2603248;54;20022;31
2023/06/23 15:47:33;;;;;;;4.05;2.35;;;23.40;99.90;;;;;;2621772;46;20037;31
2023/06/23 15:50:12;;;;;;;5.45;2.88;;;23.30;99.90;;;;;;2603317;54;20483;31
2023/06/23 15:52:52;;;;;;;5.68;2.40;;;23.30;99.90;;;;;;2621697;46;19942;31
2023/06/23 15:55:28;;;;;;;4.47;3.05;;;23.30;99.90;;;;;;2603455;54;20829;31
2023/06/23 15:58:08;;;;;;;6.93;3.63;;;23.30;99.90;;;;;;2603335;54;20953;31
2023/06/23 16:03:22;;;;;;;4.85;3.50;;;23.30;99.90;;;;;;2602578;54;20084;31
2023/06/23 16:06:01;;;;;;;4.70;3.65;;;23.40;99.90;;;;;;2616008;46;20053;31
2023/06/23 16:08:52;;;;;;;5.75;4.13;;;23.50;99.90;;;;;;2602576;54;20052;31
2023/06/23 16:11:43;;;;;;;6.32;4.53;;;23.60;99.90;;;;;;2603196;54;21337;31
2023/06/23 16:14:21;;;;;;;4.83;3.97;;;23.60;99.90;;;;;;2603137;54;20026;31
2023/06/23 16:17:00;;;;;;;5.60;4.32;;;23.60;99.90;;;;;;2701535;39;20413;31
2023/06/23 16:19:44;;;;;;;6.87;4.33;;;23.60;99.90;;;;;;2603311;54;20032;31
2023/06/23 16:22:26;;;;;;;5.35;3.92;;;23.70;99.90;;;;;;2603247;54;20869;31
2023/06/23 16:25:05;;;;;;;6.40;4.88;;;23.80;99.90;;;;;;2603105;54;20023;31
2023/06/23 16:27:45;;;;;;;6.00;3.25;;;23.70;99.90;;;;;;2701557;39;21014;31
2023/06/23 16:32:58;;;;;;;5.18;4.45;;;23.90;99.90;;;;;;2603121;54;20053;31
2023/06/23 16:35:36;;;;;;;;;;;23.90;99.90;;;;;;2603494;54;20875;31
2023/06/23 16:38:15;;;;;;;9.68;3.95;;;23.80;99.90;;;;;;2606275;46;19942;31
2023/06/23 16:40:55;;;;;;;5.43;3.83;;;23.90;99.90;;;;;;2603397;54;20026;31
2023/06/23 16:43:29;;;;;;;6.43;4.25;;;23.90;99.90;;;;;;2621175;46;22397;31
2023/06/23 16:46:07;;;;;;;8.70;4.80;;;23.90;99.90;;;;;;2602238;54;20034;31
2023/06/23 16:48:45;;;;;;;5.97;5.10;;;23.90;99.90;;;;;;2602468;54;20145;31
2023/06/23 16:51:23;;;;;;;6.13;4.30;;;23.80;99.90;;;;;;2602300;54;20037;31
2023/06/23 16:54:15;;;;;;;7.32;5.20;;;23.80;99.90;;;;;;2603019;54;20093;31
2023/06/23 16:56:54;;;;;;;6.97;4.50;;;23.80;99.90;;;;;;2700844;39;20307;31
2023/06/23 16:59:31;;;;;;;5.43;4.50;;;23.80;99.90;;;;;;2603088;54;20807;31
2023/06/23 17:02:08;;;;;;;6.83;5.40;;;23.80;99.90;;;;;;2603355;54;20054;31
2023/06/23 17:04:50;;;;;;;7.65;4.97;;;23.80;99.90;;;;;;2602971;54;20085;31
2023/06/23 17:07:28;;;;;;;6.20;5.45;;;23.70;99.90;;;;;;2772117;31;20260;31
2023/06/23 17:10:13;;;;;;;8.70;6.15;;;23.60;99.90;;;;;;2621325;47;20885;31
2023/06/23 17:12:55;;;;;;;6.47;5.82;;;23.70;99.90;;;;;;2603248;54;20885;31
2023/06/23 17:15:32;;;;;;;7.95;5.95;;;23.60;99.90;;;;;;2603076;54;20022;31
2023/06/23 17:18:10;;;;;;;6.88;5.68;;;23.70;99.90;;;;;;2701564;39;21452;31
2023/06/23 17:20:45;;;;;;;6.93;5.67;;;23.70;99.90;;;;;;2603095;54;20026;31
2023/06/23 17:23:29;;;;;;;7.00;6.30;;;23.70;99.90;;;;;;2602867;54;20033;31
2023/06/23 17:26:06;;;;;;;5.93;5.43;;;23.70;99.90;;;;;;2602972;54;20029;31
2023/06/23 17:28:48;;;;;;;6.30;5.70;;;23.70;99.90;;;;;;2602767;54;20962;31
2023/06/23 17:31:33;;;;;;;8.13;5.90;;;23.60;99.90;;;;;;2602669;54;20863;31
2023/06/23 17:34:15;;;;;;;6.25;5.65;;;23.60;99.90;;;;;;2602926;54;20932;31
2023/06/23 17:36:58;;;;;;;6.32;5.38;;;23.60;99.90;;;;;;2602882;54;20759;31
2023/06/23 17:39:34;;;;;;;9.80;6.27;;;23.50;99.90;;;;;;2613770;47;20018;31
2023/06/23 17:42:12;;;;;;;6.47;5.75;;;23.50;99.90;;;;;;2603035;54;20030;31
2023/06/23 17:44:51;;;;;;;8.30;6.43;;;23.50;99.90;;;;;;2603726;54;20931;31
2023/06/23 17:47:29;;;;;;;7.85;6.13;;;23.50;99.90;;;;;;2603680;54;20023;31
2023/06/23 17:50:04;;;;;;;8.50;6.75;;;23.30;99.90;;;;;;2603829;54;20942;31
2023/06/23 17:52:44;;;;;;;8.10;7.30;;;23.40;99.90;;;;;;2603708;54;20034;31
2023/06/23 17:55:20;;;;;;;9.20;7.65;;;23.30;99.90;;;;;;2603531;54;20784;31
2023/06/23 17:57:56;;;;;;;9.48;8.52;;;23.20;99.90;;;;;;2603694;54;20026;31
2023/06/23 18:00:36;;;;;;;9.82;8.82;;;23.20;99.90;;;;;;2603689;54;20030;31
2023/06/23 18:03:12;;;;;;;10.07;9.07;;;23.10;99.90;;;;;;2603633;54;20048;31
2023/06/23 18:05:51;;;;;;;12.00;9.57;;;23.10;99.90;;;;;;2603689;54;19984;31
2023/06/23 18:08:30;;;;;;;10.55;9.48;;;23.10;99.90;;;;;;2603848;54;20497;31
2023/06/23 18:11:08;;;;;;;10.35;8.02;;;23.00;99.90;;;;;;2603794;54;20132;31
2023/06/23 18:13:50;;;;;;;11.95;9.32;;;22.90;99.90;;;;;;2702296;39;20454;31
2023/06/23 18:16:34;;;;;;;9.93;8.93;;;22.90;99.90;;;;;;2603450;54;20944;31
2023/06/23 18:19:14;;;;;;;10.23;9.20;;;22.80;99.90;;;;;;2602808;54;20907;31
2023/06/23 18:22:00;;;;;;;12.48;10.35;;;22.80;99.90;;;;;;2602983;54;20046;31
2023/06/23 18:24:38;;;;;;;9.95;8.95;;;22.80;99.90;;;;;;2702244;39;20415;31
2023/06/23 18:27:15;;;;;;;9.75;8.85;;;22.70;99.90;;;;;;2603682;54;20879;31
2023/06/23 18:29:54;;;;;;;12.15;9.88;;;22.70;99.90;;;;;;2701272;39;20505;31
2023/06/23 18:32:50;;;;;;;11.80;10.57;;;22.70;99.90;;;;;;2603472;54;21502;31
2023/06/23 18:35:25;;;;;;;11.88;10.70;;;22.70;99.90;;;;;;2603428;54;20033;31
2023/06/23 18:38:08;;;;;;;10.35;9.45;;;22.70;99.90;;;;;;2603558;54;20077;31
2023/06/23 18:40:41;;;;;;;11.38;10.27;;;22.60;99.90;;;;;;2603496;54;20867;31